createdAt,value
2022-08-27T00:00:10.265Z,99827.31
2022-08-27T00:02:37.965Z,99822.84
2022-08-27T00:05:05.577Z,99826.75
2022-08-27T00:07:33.263Z,99828.41
2022-08-27T00:10:01.176Z,99828.81
2022-08-27T00:12:28.839Z,99827.31
2022-08-27T00:14:56.512Z,99823.09
2022-08-27T00:17:24.165Z,99820.41
2022-08-27T00:19:54.361Z,99822.66
2022-08-27T00:22:21.968Z,99814.53
2022-08-27T00:24:49.627Z,99830.28
2022-08-27T00:27:17.243Z,99826.75
2022-08-27T00:29:45.289Z,99819.47
2022-08-27T00:32:13.074Z,99823.03
2022-08-27T00:34:40.969Z,99818.00
2022-08-27T00:37:08.684Z,99819.69
2022-08-27T00:39:37.384Z,99821.19
2022-08-27T00:42:05.006Z,99824.53
2022-08-27T00:44:32.684Z,99814.91
2022-08-27T00:47:01.552Z,99826.13
2022-08-27T00:49:29.970Z,99825.66
2022-08-27T00:51:57.701Z,99820.97
2022-08-27T00:54:26.444Z,99826.09
2022-08-27T00:56:54.145Z,99825.84
2022-08-27T00:59:22.315Z,99829.06
2022-08-27T01:02:07.282Z,99831.47
2022-08-27T01:04:35.004Z,99829.69
2022-08-27T01:07:02.706Z,99829.59
2022-08-27T01:09:30.804Z,99821.00
2022-08-27T01:11:58.478Z,99822.38
2022-08-27T01:14:26.245Z,99819.41
2022-08-27T01:16:54.431Z,99823.47
2022-08-27T01:19:23.519Z,99828.41
2022-08-27T01:21:51.354Z,99825.06
2022-08-27T01:24:19.092Z,99824.59
2022-08-27T01:26:46.813Z,99827.28
2022-08-27T01:29:14.905Z,99824.28
2022-08-27T01:31:42.616Z,99827.53
2022-08-27T01:34:10.350Z,99826.22
2022-08-27T01:36:38.069Z,99823.88
2022-08-27T01:39:06.521Z,99818.38
2022-08-27T01:41:34.370Z,99826.63
2022-08-27T01:44:02.342Z,99826.63
2022-08-27T01:46:30.175Z,99818.91
2022-08-27T01:48:58.400Z,99831.94
2022-08-27T01:51:26.063Z,99830.59
2022-08-27T01:53:54.112Z,99832.81
2022-08-27T01:56:21.722Z,99823.91
2022-08-27T01:58:49.732Z,99828.44
2022-08-27T02:01:17.810Z,99834.88
2022-08-27T02:03:47.512Z,99835.25
2022-08-27T02:06:15.114Z,99835.75
2022-08-27T02:08:44.243Z,99831.53
2022-08-27T02:11:11.827Z,99826.47
2022-08-27T02:13:40.099Z,99820.59
2022-08-27T02:16:07.880Z,99830.75
2022-08-27T02:18:37.137Z,99831.75
2022-08-27T02:21:05.033Z,99822.00
2022-08-27T02:23:32.701Z,99829.06
2022-08-27T02:26:01.047Z,99829.06
2022-08-27T02:28:29.055Z,99826.72
2022-08-27T02:30:56.747Z,99825.06
2022-08-27T02:33:24.367Z,99821.50
2022-08-27T02:35:52.086Z,99823.34
2022-08-27T02:38:20.704Z,99819.66
2022-08-27T02:40:48.803Z,99823.34
2022-08-27T02:43:16.512Z,99823.34
2022-08-27T02:45:53.217Z,99824.69
2022-08-27T02:48:21.541Z,99824.53
2022-08-27T02:50:49.142Z,99826.38
2022-08-27T02:53:16.814Z,99824.03
2022-08-27T02:55:44.880Z,99825.06
2022-08-27T02:58:15.609Z,99818.31
2022-08-27T03:00:43.263Z,99817.66
2022-08-27T03:03:11.146Z,99817.66
2022-08-27T03:05:38.732Z,99820.38
2022-08-27T03:08:06.437Z,99814.97
2022-08-27T03:10:34.049Z,99811.78
2022-08-27T03:13:01.703Z,99818.38
2022-08-27T03:15:29.300Z,99810.63
2022-08-27T03:18:14.794Z,99810.63
2022-08-27T03:20:42.411Z,99812.31
2022-08-27T03:23:10.193Z,99814.00
2022-08-27T03:25:37.900Z,99815.34
2022-08-27T03:28:13.472Z,99824.47
2022-08-27T03:30:52.020Z,99822.97
2022-08-27T03:33:19.887Z,99823.81
2022-08-27T03:35:51.547Z,99830.88
2022-08-27T03:38:19.646Z,99822.13
2022-08-27T03:40:47.787Z,99822.97
2022-08-27T03:43:15.419Z,99823.97
2022-08-27T03:45:50.368Z,99822.13
2022-08-27T03:48:29.738Z,99821.78
2022-08-27T03:50:57.936Z,99829.69
2022-08-27T03:53:26.130Z,99826.16
2022-08-27T03:55:53.840Z,99827.53
2022-08-27T03:58:21.496Z,99826.84
2022-08-27T04:00:49.452Z,99833.25
2022-08-27T04:03:17.221Z,99826.84
2022-08-27T04:05:45.255Z,99824.16
2022-08-27T04:08:13.538Z,99827.69
2022-08-27T04:10:41.658Z,99828.72
2022-08-27T04:13:09.286Z,99825.84
2022-08-27T04:15:40.695Z,99832.94
2022-08-27T04:18:08.679Z,99834.44
2022-08-27T04:20:36.720Z,99838.97
2022-08-27T04:23:04.387Z,99839.34
2022-08-27T04:25:32.046Z,99847.59
2022-08-27T04:27:59.697Z,99839.03
2022-08-27T04:30:27.906Z,99841.06
2022-08-27T04:32:55.525Z,99842.09
2022-08-27T04:35:23.430Z,99841.41
2022-08-27T04:37:51.186Z,99848.66
2022-08-27T04:40:19.381Z,99846.78
2022-08-27T04:42:47.166Z,99840.75
2022-08-27T04:45:14.785Z,99845.97
2022-08-27T04:47:42.432Z,99844.09
2022-08-27T04:50:10.572Z,99851.16
2022-08-27T04:52:41.049Z,99844.28
2022-08-27T04:55:09.228Z,99838.22
2022-08-27T04:57:38.174Z,99852.88
2022-08-27T05:00:07.149Z,99855.94
2022-08-27T05:02:34.875Z,99858.00
2022-08-27T05:05:02.574Z,99854.44
2022-08-27T05:07:30.293Z,99856.13
2022-08-27T05:09:58.467Z,99851.94
2022-08-27T05:12:26.130Z,99853.78
2022-08-27T05:14:53.814Z,99855.63
2022-08-27T05:17:22.012Z,99849.56
2022-08-27T05:19:50.173Z,99848.91
2022-08-27T05:22:17.825Z,99855.97
2022-08-27T05:24:50.275Z,99858.69
2022-08-27T05:27:18.229Z,99855.97
2022-08-27T05:29:47.011Z,99850.59
2022-08-27T05:32:14.804Z,99854.78
2022-08-27T05:34:42.461Z,99858.31
2022-08-27T05:37:10.093Z,99860.69
2022-08-27T05:39:38.131Z,99861.88
2022-08-27T05:42:06.014Z,99865.59
2022-08-27T05:44:41.865Z,99868.44
2022-08-27T05:47:10.228Z,99867.63
2022-08-27T05:49:38.784Z,99864.72
2022-08-27T05:52:06.464Z,99871.16
2022-08-27T05:54:34.050Z,99865.41
2022-08-27T05:57:01.708Z,99871.47
2022-08-27T05:59:47.030Z,99866.06
2022-08-27T06:02:14.740Z,99866.75
2022-08-27T06:04:42.408Z,99854.94
2022-08-27T06:07:10.750Z,99867.41
2022-08-27T06:09:38.736Z,99865.72
2022-08-27T06:12:06.333Z,99875.84
2022-08-27T06:14:34.028Z,99873.16
2022-08-27T06:17:01.646Z,99874.66
2022-08-27T06:19:29.804Z,99879.88
2022-08-27T06:22:00.925Z,99871.06
2022-08-27T06:24:39.165Z,99880.03
2022-08-27T06:27:07.374Z,99884.06
2022-08-27T06:29:35.359Z,99887.13
2022-08-27T06:32:03.067Z,99891.66
2022-08-27T06:34:30.790Z,99890.00
2022-08-27T06:36:59.833Z,99893.53
2022-08-27T06:39:28.022Z,99893.53
2022-08-27T06:41:58.633Z,99882.91
2022-08-27T06:44:26.487Z,99881.91
2022-08-27T06:46:54.093Z,99882.56
2022-08-27T06:49:23.428Z,99883.25
2022-08-27T06:51:51.105Z,99881.22
2022-08-27T06:54:20.148Z,99876.84
2022-08-27T06:56:49.645Z,99882.88
2022-08-27T06:59:17.725Z,99890.81
2022-08-27T07:01:45.547Z,99880.34
2022-08-27T07:04:13.301Z,99876.66
2022-08-27T07:06:41.367Z,99876.47
2022-08-27T07:09:09.629Z,99880.69
2022-08-27T07:11:37.603Z,99884.38
2022-08-27T07:14:06.158Z,99872.03
2022-08-27T07:16:34.007Z,99876.88
2022-08-27T07:19:04.040Z,99878.22
2022-08-27T07:21:32.021Z,99880.41
2022-08-27T07:24:04.965Z,99876.50
2022-08-27T07:26:33.164Z,99876.34
2022-08-27T07:29:01.181Z,99884.44
2022-08-27T07:31:28.981Z,99879.03
2022-08-27T07:33:56.667Z,99882.41
2022-08-27T07:36:24.604Z,99892.00
2022-08-27T07:39:01.414Z,99886.06
2022-08-27T07:41:31.209Z,99891.44
2022-08-27T07:44:13.518Z,99892.44
2022-08-27T07:46:47.015Z,99894.44
2022-08-27T07:49:15.433Z,99895.56
2022-08-27T07:51:43.117Z,99889.44
2022-08-27T07:54:10.976Z,99892.75
2022-08-27T07:56:38.644Z,99892.19
2022-08-27T07:59:06.342Z,99887.75
2022-08-27T08:01:34.068Z,99895.81
2022-08-27T08:04:01.834Z,99897.97
2022-08-27T08:06:30.189Z,99899.09
2022-08-27T08:08:57.872Z,99896.88
2022-08-27T08:11:25.465Z,99899.00
2022-08-27T08:13:53.130Z,99898.47
2022-08-27T08:16:21.311Z,99893.38
2022-08-27T08:18:49.009Z,99900.59
2022-08-27T08:21:16.664Z,99904.91
2022-08-27T08:23:44.354Z,99910.25
2022-08-27T08:26:12.462Z,99904.75
2022-08-27T08:28:40.247Z,99908.94
2022-08-27T08:31:08.403Z,99918.91
2022-08-27T08:33:36.074Z,99913.25
2022-08-27T08:36:03.767Z,99904.84
2022-08-27T08:38:31.424Z,99915.66
2022-08-27T08:40:59.132Z,99908.56
2022-08-27T08:43:26.844Z,99916.69
2022-08-27T08:45:55.093Z,99915.47
2022-08-27T08:48:22.817Z,99920.03
2022-08-27T08:50:50.470Z,99912.94
2022-08-27T08:53:20.212Z,99926.16
2022-08-27T08:55:48.326Z,99923.00
2022-08-27T08:58:16.005Z,99923.84
2022-08-27T09:00:43.660Z,99925.69
2022-08-27T09:03:11.410Z,99926.53
2022-08-27T09:05:39.088Z,99924.19
2022-08-27T09:08:30.877Z,99919.53
2022-08-27T09:10:54.549Z,99930.00
2022-08-27T09:13:22.296Z,99925.34
2022-08-27T09:15:50.201Z,99925.72
2022-08-27T09:18:18.521Z,99920.31
2022-08-27T09:20:48.341Z,99923.19
2022-08-27T09:23:16.450Z,99922.69
2022-08-27T09:25:44.862Z,99917.28
2022-08-27T09:28:32.778Z,99922.53
2022-08-27T09:31:00.588Z,99928.41
2022-08-27T09:33:28.406Z,99939.88
2022-08-27T09:36:12.358Z,99929.06
2022-08-27T09:38:40.356Z,99936.16
2022-08-27T09:41:08.508Z,99927.00
2022-08-27T09:43:37.129Z,99928.69
2022-08-27T09:46:05.054Z,99931.03
2022-08-27T09:48:32.744Z,99932.06
2022-08-27T09:51:00.747Z,99927.47
2022-08-27T09:53:28.443Z,99930.88
2022-08-27T09:55:56.211Z,99931.19
2022-08-27T09:58:23.871Z,99928.59
2022-08-27T10:00:52.103Z,99933.47
2022-08-27T10:03:19.893Z,99923.13
2022-08-27T10:05:51.986Z,99924.25
2022-08-27T10:08:19.978Z,99923.50
2022-08-27T10:10:48.895Z,99919.22
2022-08-27T10:13:16.587Z,99926.22
2022-08-27T10:15:47.757Z,99931.38
2022-08-27T10:18:17.875Z,99920.28
2022-08-27T10:20:45.954Z,99932.28
2022-08-27T10:23:13.807Z,99935.63
2022-08-27T10:25:41.451Z,99933.81
2022-08-27T10:28:09.326Z,99944.28
2022-08-27T10:30:37.475Z,99934.94
2022-08-27T10:33:05.559Z,99937.44
2022-08-27T10:35:33.632Z,99938.00
2022-08-27T10:38:01.426Z,99939.69
2022-08-27T10:40:29.704Z,99942.59
2022-08-27T10:42:57.948Z,99946.53
2022-08-27T10:45:30.907Z,99941.66
2022-08-27T10:47:59.399Z,99948.28
2022-08-27T10:50:29.429Z,99944.06
2022-08-27T10:52:57.170Z,99942.19
2022-08-27T10:55:27.141Z,99947.41
2022-08-27T10:58:00.377Z,99948.94
2022-08-27T11:00:28.774Z,99946.88
2022-08-27T11:02:56.516Z,99944.38
2022-08-27T11:05:24.194Z,99947.25
2022-08-27T11:07:52.726Z,99942.31
2022-08-27T11:10:21.118Z,99936.50
2022-08-27T11:12:48.892Z,99940.53
2022-08-27T11:15:16.546Z,99941.19
2022-08-27T11:17:44.561Z,99942.03
2022-08-27T11:20:12.236Z,99945.56
2022-08-27T11:22:39.914Z,99937.91
2022-08-27T11:25:07.541Z,99937.34
2022-08-27T11:27:36.009Z,99931.56
2022-08-27T11:30:04.296Z,99934.50
2022-08-27T11:32:31.968Z,99927.97
2022-08-27T11:34:59.686Z,99929.81
2022-08-27T11:37:27.372Z,99924.16
2022-08-27T11:39:55.590Z,99932.06
2022-08-27T11:42:23.326Z,99919.28
2022-08-27T11:44:51.239Z,99922.56
2022-08-27T11:47:18.930Z,99921.44
2022-08-27T11:49:47.186Z,99918.25
2022-08-27T11:52:15.368Z,99917.81
2022-08-27T11:54:44.506Z,99912.91
2022-08-27T11:57:12.149Z,99920.09
2022-08-27T11:59:40.574Z,99919.31
2022-08-27T12:02:08.263Z,99912.06
2022-08-27T12:04:36.116Z,99925.31
2022-08-27T12:07:03.876Z,99914.91
2022-08-27T12:09:31.993Z,99912.00
2022-08-27T12:11:59.666Z,99914.50
2022-08-27T12:14:27.389Z,99924.97
2022-08-27T12:16:55.016Z,99917.44
2022-08-27T12:19:25.215Z,99920.97
2022-08-27T12:21:52.901Z,99917.63
2022-08-27T12:24:20.734Z,99923.00
2022-08-27T12:26:48.490Z,99921.09
2022-08-27T12:29:16.579Z,99921.81
2022-08-27T12:31:44.324Z,99923.47
2022-08-27T12:34:12.023Z,99926.63
2022-08-27T12:36:40.193Z,99927.91
2022-08-27T12:39:10.243Z,99926.44
2022-08-27T12:41:43.949Z,99913.13
2022-08-27T12:44:13.266Z,99913.56
2022-08-27T12:46:41.082Z,99922.16
2022-08-27T12:49:36.141Z,99917.34
2022-08-27T12:51:56.448Z,99923.63
2022-08-27T12:54:30.169Z,99924.50
2022-08-27T12:56:58.397Z,99915.72
2022-08-27T12:59:26.128Z,99917.81
2022-08-27T13:01:53.936Z,99917.00
2022-08-27T13:04:21.695Z,99915.78
2022-08-27T13:06:49.504Z,99914.34
2022-08-27T13:09:17.475Z,99921.25
2022-08-27T13:11:45.345Z,99918.31
2022-08-27T13:14:13.105Z,99905.97
2022-08-27T13:16:40.857Z,99911.19
2022-08-27T13:19:09.611Z,99913.91
2022-08-27T13:21:37.243Z,99918.97
2022-08-27T13:24:04.942Z,99911.63
2022-08-27T13:26:34.236Z,99906.81
2022-08-27T13:29:03.960Z,99907.91
2022-08-27T13:31:31.712Z,99908.13
2022-08-27T13:33:59.657Z,99908.34
2022-08-27T13:36:27.318Z,99904.56
2022-08-27T13:38:57.853Z,99906.63
2022-08-27T13:41:25.591Z,99907.06
2022-08-27T13:43:58.537Z,99903.72
2022-08-27T13:46:27.225Z,99905.00
2022-08-27T13:48:55.400Z,99902.47
2022-08-27T13:51:23.155Z,99901.63
2022-08-27T13:54:08.340Z,99896.16
2022-08-27T13:56:36.679Z,99896.41
2022-08-27T13:59:04.411Z,99892.00
2022-08-27T14:01:33.034Z,99897.88
2022-08-27T14:04:00.838Z,99889.91
2022-08-27T14:06:32.952Z,99897.22
2022-08-27T14:09:04.143Z,99894.09
2022-08-27T14:11:32.049Z,99902.06
2022-08-27T14:14:00.193Z,99884.69
2022-08-27T14:16:28.317Z,99892.00
2022-08-27T14:18:59.316Z,99889.06
2022-08-27T14:21:27.352Z,99887.81
2022-08-27T14:23:55.289Z,99886.16
2022-08-27T14:26:23.044Z,99888.22
2022-08-27T14:28:51.117Z,99892.00
2022-08-27T14:31:18.987Z,99891.38
2022-08-27T14:33:47.654Z,99892.84
2022-08-27T14:36:15.412Z,99896.19
2022-08-27T14:38:43.499Z,99893.66
2022-08-27T14:41:11.175Z,99889.47
2022-08-27T14:43:39.155Z,99893.66
2022-08-27T14:46:08.190Z,99884.03
2022-08-27T14:48:37.113Z,99892.00
2022-08-27T14:51:04.814Z,99890.94
2022-08-27T14:53:32.542Z,99894.53
2022-08-27T14:56:01.917Z,99893.69
2022-08-27T14:58:29.682Z,99887.81
2022-08-27T15:00:57.937Z,99893.69
2022-08-27T15:03:26.407Z,99889.47
2022-08-27T15:05:54.985Z,99894.94
2022-08-27T15:08:27.391Z,99897.44
2022-08-27T15:10:57.309Z,99894.69
2022-08-27T15:13:24.925Z,99897.84
2022-08-27T15:15:53.123Z,99895.72
2022-08-27T15:18:20.919Z,99897.44
2022-08-27T15:20:48.916Z,99902.91
2022-08-27T15:23:16.951Z,99893.69
2022-08-27T15:25:45.395Z,99896.16
2022-08-27T15:28:13.384Z,99890.31
2022-08-27T15:30:41.426Z,99895.75
2022-08-27T15:33:09.161Z,99898.25
2022-08-27T15:35:36.847Z,99886.94
2022-08-27T15:38:04.567Z,99893.00
2022-08-27T15:40:34.807Z,99895.31
2022-08-27T15:43:03.367Z,99890.09
2022-08-27T15:45:31.391Z,99890.72
2022-08-27T15:47:59.467Z,99891.78
2022-08-27T15:50:27.177Z,99899.72
2022-08-27T15:52:55.041Z,99890.13
2022-08-27T15:55:22.858Z,99897.88
2022-08-27T15:57:51.021Z,99892.22
2022-08-27T16:00:18.831Z,99889.50
2022-08-27T16:02:46.657Z,99894.72
2022-08-27T16:05:14.378Z,99897.47
2022-08-27T16:07:42.495Z,99895.97
2022-08-27T16:10:10.085Z,99899.75
2022-08-27T16:12:37.999Z,99898.25
2022-08-27T16:15:05.929Z,99900.13
2022-08-27T16:17:34.538Z,99898.63
2022-08-27T16:20:02.210Z,99900.69
2022-08-27T16:22:29.919Z,99901.50
2022-08-27T16:24:57.588Z,99901.09
2022-08-27T16:27:25.560Z,99901.88
2022-08-27T16:29:54.133Z,99893.06
2022-08-27T16:32:23.020Z,99902.25
2022-08-27T16:34:55.528Z,99900.31
2022-08-27T16:37:23.774Z,99907.59
2022-08-27T16:39:51.967Z,99910.28
2022-08-27T16:42:19.646Z,99896.03
2022-08-27T16:44:47.351Z,99904.16
2022-08-27T16:47:15.134Z,99904.53
2022-08-27T16:50:00.707Z,99901.59
2022-08-27T16:52:28.366Z,99904.94
2022-08-27T16:54:57.051Z,99900.53
2022-08-27T16:57:25.942Z,99903.81
2022-08-27T16:59:55.115Z,99892.16
2022-08-27T17:02:22.938Z,99904.03
2022-08-27T17:05:07.216Z,99898.81
2022-08-27T17:07:41.671Z,99903.78
2022-08-27T17:10:13.835Z,99905.03
2022-08-27T17:12:41.508Z,99909.19
2022-08-27T17:15:09.813Z,99908.09
2022-08-27T17:17:39.008Z,99911.38
2022-08-27T17:20:06.732Z,99905.72
2022-08-27T17:22:35.097Z,99909.03
2022-08-27T17:25:03.328Z,99912.13
2022-08-27T17:27:31.195Z,99911.66
2022-08-27T17:29:58.932Z,99909.38
2022-08-27T17:32:26.684Z,99913.31
2022-08-27T17:34:54.341Z,99913.03
2022-08-27T17:37:22.237Z,99914.47
2022-08-27T17:39:50.256Z,99913.19
2022-08-27T17:42:18.005Z,99911.91
2022-08-27T17:44:45.732Z,99921.47
2022-08-27T17:47:13.356Z,99921.00
2022-08-27T17:49:41.966Z,99916.81
2022-08-27T17:52:10.876Z,99918.06
2022-08-27T17:54:38.854Z,99918.44
2022-08-27T17:57:07.135Z,99927.16
2022-08-27T17:59:35.267Z,99932.31
2022-08-27T18:02:03.053Z,99928.31
2022-08-27T18:04:30.792Z,99934.97
2022-08-27T18:06:58.882Z,99934.50
2022-08-27T18:09:26.622Z,99939.13
2022-08-27T18:11:54.415Z,99935.91
2022-08-27T18:14:24.303Z,99941.53
2022-08-27T18:16:52.462Z,99949.84
2022-08-27T18:19:20.285Z,99945.44
2022-08-27T18:21:48.014Z,99946.88
2022-08-27T18:24:15.769Z,99947.25
2022-08-27T18:26:43.803Z,99955.78
2022-08-27T18:29:11.541Z,99949.03
2022-08-27T18:31:39.171Z,99961.31
2022-08-27T18:34:06.892Z,99959.16
2022-08-27T18:36:35.922Z,99951.22
2022-08-27T18:39:03.708Z,99957.00
2022-08-27T18:41:31.406Z,99967.19
2022-08-27T18:44:00.179Z,99955.72
2022-08-27T18:46:27.961Z,99963.22
2022-08-27T18:48:55.702Z,99959.81
2022-08-27T18:51:23.687Z,99966.47
2022-08-27T18:53:51.453Z,99962.94
2022-08-27T18:56:19.645Z,99965.00
2022-08-27T18:58:47.301Z,99960.59
2022-08-27T19:01:15.390Z,99969.09
2022-08-27T19:03:43.286Z,99962.00
2022-08-27T19:06:11.130Z,99961.34
2022-08-27T19:08:39.798Z,99964.25
2022-08-27T19:11:07.489Z,99973.56
2022-08-27T19:13:35.155Z,99962.94
2022-08-27T19:16:02.987Z,99969.59
2022-08-27T19:18:31.068Z,99975.81
2022-08-27T19:20:58.810Z,99976.03
2022-08-27T19:23:26.576Z,99975.19
2022-08-27T19:25:54.247Z,99974.72
2022-08-27T19:28:22.440Z,99984.72
2022-08-27T19:30:50.145Z,99983.22
2022-08-27T19:33:17.837Z,99975.28
2022-08-27T19:35:45.616Z,99986.28
2022-08-27T19:38:13.422Z,99984.59
2022-08-27T19:40:41.646Z,99985.63
2022-08-27T19:43:09.305Z,99991.06
2022-08-27T19:45:40.474Z,99992.09
2022-08-27T19:48:08.311Z,99989.56
2022-08-27T19:50:36.462Z,99978.72
2022-08-27T19:53:04.197Z,99986.03
2022-08-27T19:55:31.892Z,99982.59
2022-08-27T19:57:59.662Z,99987.19
2022-08-27T20:00:28.051Z,99990.09
2022-08-27T20:02:56.233Z,99986.72
2022-08-27T20:05:24.105Z,99985.06
2022-08-27T20:07:51.868Z,99980.00
2022-08-27T20:10:19.959Z,99983.72
2022-08-27T20:12:49.439Z,99981.19
2022-08-27T20:15:17.227Z,99984.13
2022-08-27T20:17:45.624Z,99980.75
2022-08-27T20:20:13.727Z,99984.47
2022-08-27T20:22:41.363Z,99984.47
2022-08-27T20:25:09.673Z,99977.38
2022-08-27T20:27:37.399Z,99985.69
2022-08-27T20:30:05.666Z,99984.00
2022-08-27T20:32:34.427Z,99990.44
2022-08-27T20:35:02.090Z,99986.91
2022-08-27T20:37:29.723Z,99986.06
2022-08-27T20:39:58.212Z,99989.63
2022-08-27T20:42:25.892Z,99985.22
2022-08-27T20:44:54.578Z,99990.66
2022-08-27T20:47:22.243Z,99984.56
2022-08-27T20:49:50.383Z,99983.91
2022-08-27T20:52:19.297Z,99988.47
2022-08-27T20:54:47.009Z,99988.66
2022-08-27T20:57:14.670Z,99996.78
2022-08-27T20:59:59.991Z,99992.59
2022-08-27T21:02:27.786Z,99997.13
2022-08-27T21:04:55.533Z,99999.38
2022-08-27T21:07:23.216Z,99999.56
2022-08-27T21:09:55.984Z,100005.00
2022-08-27T21:12:25.198Z,100000.78
2022-08-27T21:14:54.933Z,100003.66
2022-08-27T21:17:24.578Z,100003.88
2022-08-27T21:19:52.827Z,100000.31
2022-08-27T21:22:20.524Z,100002.38
2022-08-27T21:24:48.442Z,100008.81
2022-08-27T21:27:16.238Z,100004.38
2022-08-27T21:29:45.258Z,99998.97
2022-08-27T21:32:13.024Z,100001.88
2022-08-27T21:34:41.867Z,100004.75
2022-08-27T21:37:09.545Z,100001.03
2022-08-27T21:39:38.501Z,100003.72
2022-08-27T21:42:06.208Z,100008.13
2022-08-27T21:44:34.444Z,100015.22
2022-08-27T21:47:03.907Z,100025.38
2022-08-27T21:49:32.737Z,100023.69
2022-08-27T21:52:00.481Z,100028.47
2022-08-27T21:54:28.241Z,100027.78
2022-08-27T21:56:55.868Z,100032.53
2022-08-27T21:59:26.405Z,100031.88
2022-08-27T22:02:00.551Z,100029.19
2022-08-27T22:04:29.844Z,100027.69
2022-08-27T22:06:59.719Z,100033.25
2022-08-27T22:09:27.778Z,100038.00
2022-08-27T22:11:55.464Z,100032.78
2022-08-27T22:14:23.155Z,100040.06
2022-08-27T22:16:50.878Z,100032.97
2022-08-27T22:19:18.975Z,100043.13
2022-08-27T22:21:46.687Z,100037.72
2022-08-27T22:24:14.474Z,100032.50
2022-08-27T22:26:42.335Z,100044.50
2022-08-27T22:29:10.434Z,100040.78
2022-08-27T22:31:38.536Z,100040.13
2022-08-27T22:34:06.369Z,100041.34
2022-08-27T22:36:34.030Z,100043.56
2022-08-27T22:39:04.062Z,100045.41
2022-08-27T22:41:32.488Z,100041.22
2022-08-27T22:44:00.398Z,100044.88
2022-08-27T22:46:28.126Z,100047.78
2022-08-27T22:48:57.297Z,100047.31
2022-08-27T22:51:25.026Z,100049.53
2022-08-27T22:53:52.649Z,100044.47
2022-08-27T22:56:20.493Z,100049.22
2022-08-27T22:58:49.528Z,100045.84
2022-08-27T23:01:17.347Z,100059.53
2022-08-27T23:03:45.103Z,100059.91
2022-08-27T23:06:12.881Z,100060.06
2022-08-27T23:08:41.012Z,100060.25
2022-08-27T23:11:08.662Z,100060.25
2022-08-27T23:13:36.376Z,100061.25
2022-08-27T23:16:04.101Z,100062.28
2022-08-27T23:18:32.474Z,100051.84
2022-08-27T23:21:00.173Z,100054.88
2022-08-27T23:23:30.685Z,100047.78
2022-08-27T23:26:16.124Z,100040.88
2022-08-27T23:28:44.543Z,100047.50
2022-08-27T23:31:12.319Z,100039.75
2022-08-27T23:33:40.066Z,100052.75
2022-08-27T23:36:07.950Z,100041.47
2022-08-27T23:38:35.641Z,100041.47
2022-08-27T23:41:03.714Z,100045.34
2022-08-27T23:43:31.455Z,100050.94
2022-08-27T23:45:59.172Z,100046.56
2022-08-27T23:48:26.963Z,100042.34
2022-08-27T23:50:54.985Z,100048.78
2022-08-27T23:53:22.656Z,100050.78
2022-08-27T23:55:50.349Z,100044.91
2022-08-27T23:58:18.031Z,100055.22
